Terminal Aerodrome Forecast
Issued by NWS

Home | Current Version | Previous Version | Text Only | Print | Product List | Glossary On
Versions: 1 2 3 4 5 6 7 8 9 10 11 12 13 14
000
FTUS42 KMHX 192300
TAFISO
TAF
KISO 192321Z 2000/2024 00000KT P6SM BKN150
     FM200500 03002KT P6SM SCT050 BKN120
     FM201500 05005KT P6SM VCSH SCT020 OVC040
      AMD LTD TO CLD VIS AND WIND=

USA.gov is the U.S. government's official web portal to all federal, state and local government web resources and services.